KGRR/GRR METAR and TAF weather

Enter ICAO airport designator
Station Type Date Time Source
KGRR METAR 2019/12/08 03:53 UTC NOAA

KGRR 080353Z 18010KT 10SM BKN070 BKN220 01/M04 A3019 RMK AO2 SLP233 T00061044


Station Type Date Time Source
KGRR Decoded METAR 2019/12/08 03:53 UTC NOAA

GERALD R. FORD INTERNATIONAL, MI, United States (KGRR) 42-53N 085-31W 239M
Dec 07, 2019 - 10:53 PM EST / 2019.12.08 0353 UTC
Wind: from the S (180 degrees) at 12 MPH (10 KT):0
Visibility: 10 mile(s):0
Sky conditions: mostly cloudy
Temperature: 33.1 F (0.6 C)
Windchill: 24 F (-4 C):1
Dew Point: 24.1 F (-4.4 C)
Relative Humidity: 69%
Pressure (altimeter): 30.19 in. Hg (1022 hPa)
ob: KGRR 080353Z 18010KT 10SM BKN070 BKN220 01/M04 A3019 RMK AO2 SLP233 T00061044
cycle: 4

Station Type Date Time Source
KGRR TAF 2019/12/07 23:36 UTC NOAA

TAF
AMD KGRR 072235Z 0723/0818 17011KT P6SM BKN060
FM081500 21014G22KT P6SM BKN025

Example: see airport list